Time;durP1;ratioP1;P1;durP2;ratioP2;P2;SDS_P1;SDS_P2;PMS_P1;PMS_P2;Temp;Humidity;BMP_temperature;BMP_pressure;BME280_temperature;BME280_humidity;BME280_pressure;Samples;Min_cycle;Max_cycle;Signal;HPM_P1;HPM_P2
2022/08/14 00:00:00;;;;;;;0.6;0.5;;;;;;;24.3;68.7;100880;;;;
2022/08/14 00:01:00;;;;;;;0.6;0.5;;;;;;;24.3;68.7;100880;;;;
2022/08/14 00:02:03;;;;;;;0.6;0.5;;;;;;;24.2;71.1;100870;;;;
2022/08/14 00:03:00;;;;;;;0.6;0.5;;;;;;;24.2;71.1;100870;;;;
2022/08/14 00:04:01;;;;;;;0.6;0.5;;;;;;;24.2;70.2;100860;;;;
2022/08/14 00:05:00;;;;;;;0.6;0.5;;;;;;;24.2;70.2;100860;;;;
2022/08/14 00:06:11;;;;;;;0.6;0.5;;;;;;;24.1;70.6;100870;;;;
2022/08/14 00:07:00;;;;;;;0.6;0.5;;;;;;;24.1;70.6;100870;;;;
2022/08/14 00:08:00;;;;;;;0.6;0.5;;;;;;;24.2;68.4;100860;;;;
2022/08/14 00:09:00;;;;;;;0.6;0.5;;;;;;;24.2;68.4;100860;;;;
2022/08/14 00:10:10;;;;;;;0.6;0.5;;;;;;;24.1;70.8;100870;;;;
2022/08/14 00:11:00;;;;;;;0.6;0.5;;;;;;;24.1;70.8;100870;;;;
2022/08/14 00:12:00;;;;;;;0.6;0.5;;;;;;;24.1;70.5;100870;;;;
2022/08/14 00:13:07;;;;;;;2.9;0.9;;;;;;;24.1;71.6;100860;;;;
2022/08/14 00:14:02;;;;;;;2.9;0.9;;;;;;;24.1;71.6;100860;;;;
2022/08/14 00:15:03;;;;;;;2.9;0.9;;;;;;;24.0;71.6;100860;;;;
2022/08/14 00:16:00;;;;;;;2.9;0.9;;;;;;;24.0;73.8;100860;;;;
2022/08/14 00:17:01;;;;;;;2.9;0.9;;;;;;;24.0;73.8;100860;;;;
2022/08/14 00:18:01;;;;;;;2.9;0.9;;;;;;;24.0;72.2;100860;;;;
2022/08/14 00:19:10;;;;;;;2.9;0.9;;;;;;;24.1;71.4;100860;;;;
2022/08/14 00:20:00;;;;;;;2.9;0.9;;;;;;;24.1;71.4;100860;;;;
2022/08/14 00:21:01;;;;;;;2.9;0.9;;;;;;;24.1;71.4;100860;;;;
2022/08/14 00:22:00;;;;;;;2.9;0.9;;;;;;;24.1;72.5;100860;;;;
2022/08/14 00:23:10;;;;;;;2.9;0.9;;;;;;;24.1;71.4;100850;;;;
2022/08/14 00:24:03;;;;;;;2.9;0.9;;;;;;;24.1;71.4;100850;;;;
2022/08/14 00:25:00;;;;;;;2.9;0.9;;;;;;;24.1;71.4;100850;;;;
2022/08/14 00:26:08;;;;;;;2.9;0.9;;;;;;;23.9;73.5;100850;;;;
2022/08/14 00:27:02;;;;;;;2.9;0.9;;;;;;;23.9;73.5;100850;;;;
2022/08/14 00:28:03;;;;;;;2.9;0.9;;;;;;;23.9;73.3;100850;;;;
2022/08/14 00:29:01;;;;;;;2.9;0.9;;;;;;;23.9;73.3;100850;;;;
2022/08/14 00:30:00;;;;;;;2.9;0.9;;;;;;;24.0;74.4;100850;;;;
2022/08/14 00:31:01;;;;;;;2.9;0.9;;;;;;;24.0;74.4;100850;;;;
2022/08/14 00:32:05;;;;;;;0.1;0.1;;;;;;;23.9;73.3;100850;;;;
2022/08/14 00:33:00;;;;;;;0.1;0.1;;;;;;;23.9;73.3;100850;;;;
2022/08/14 00:34:10;;;;;;;0.1;0.1;;;;;;;23.7;77.5;100840;;;;
2022/08/14 00:35:00;;;;;;;0.1;0.1;;;;;;;23.7;77.5;100840;;;;
2022/08/14 00:36:10;;;;;;;0.1;0.1;;;;;;;23.7;77.1;100840;;;;
2022/08/14 00:37:02;;;;;;;0.1;0.1;;;;;;;23.7;77.1;100840;;;;
2022/08/14 00:38:01;;;;;;;0.1;0.1;;;;;;;23.7;75.7;100840;;;;
2022/08/14 00:39:00;;;;;;;0.1;0.1;;;;;;;23.7;75.7;100840;;;;
2022/08/14 00:40:01;;;;;;;0.1;0.1;;;;;;;23.8;74.6;100840;;;;
2022/08/14 00:41:00;;;;;;;0.1;0.1;;;;;;;23.8;74.6;100840;;;;
2022/08/14 00:42:02;;;;;;;0.1;0.1;;;;;;;23.8;75.8;100830;;;;
2022/08/14 00:43:01;;;;;;;0.1;0.1;;;;;;;23.8;75.8;100830;;;;
2022/08/14 00:44:01;;;;;;;0.1;0.1;;;;;;;23.8;74.9;100830;;;;
2022/08/14 00:45:00;;;;;;;0.1;0.1;;;;;;;23.8;74.9;100830;;;;
2022/08/14 00:46:08;;;;;;;0.1;0.1;;;;;;;23.7;76.6;100840;;;;
2022/08/14 00:47:04;;;;;;;0.1;0.1;;;;;;;23.7;76.6;100840;;;;
2022/08/14 00:48:00;;;;;;;0.1;0.1;;;;;;;23.8;75.4;100830;;;;
2022/08/14 00:49:00;;;;;;;0.1;0.1;;;;;;;23.8;75.4;100830;;;;
2022/08/14 00:50:02;;;;;;;0.1;0.1;;;;;;;23.6;78.2;100830;;;;
2022/08/14 00:51:00;;;;;;;0.1;0.1;;;;;;;23.6;78.2;100830;;;;
2022/08/14 00:52:00;;;;;;;1.0;0.5;;;;;;;23.7;76.3;100830;;;;
2022/08/14 00:53:00;;;;;;;1.0;0.5;;;;;;;23.7;76.3;100830;;;;
2022/08/14 00:54:01;;;;;;;1.0;0.5;;;;;;;23.6;78.7;100820;;;;
2022/08/14 00:55:01;;;;;;;1.0;0.5;;;;;;;23.6;78.7;100820;;;;
2022/08/14 00:56:00;;;;;;;1.0;0.5;;;;;;;23.6;77.8;100820;;;;
2022/08/14 00:57:00;;;;;;;1.0;0.5;;;;;;;23.6;77.8;100820;;;;
2022/08/14 00:59:00;;;;;;;1.0;0.5;;;;;;;23.6;76.6;100820;;;;
2022/08/14 01:00:01;;;;;;;1.0;0.5;;;;;;;23.4;78.5;100820;;;;
2022/08/14 01:01:03;;;;;;;1.0;0.5;;;;;;;23.3;80.3;100820;;;;
2022/08/14 01:02:00;;;;;;;1.0;0.5;;;;;;;23.3;80.3;100820;;;;
2022/08/14 01:03:00;;;;;;;1.0;0.5;;;;;;;23.3;80.3;100820;;;;
2022/08/14 01:04:05;;;;;;;1.0;0.5;;;;;;;23.5;78.8;100820;;;;
2022/08/14 01:05:03;;;;;;;1.0;0.5;;;;;;;23.5;78.8;100820;;;;
2022/08/14 01:06:00;;;;;;;1.0;0.5;;;;;;;23.4;80.4;100810;;;;
2022/08/14 01:07:06;;;;;;;1.0;0.5;;;;;;;23.4;79.5;100810;;;;
2022/08/14 01:08:03;;;;;;;1.0;0.5;;;;;;;23.4;79.5;100810;;;;
2022/08/14 01:09:01;;;;;;;1.0;0.5;;;;;;;23.4;79.5;100810;;;;
2022/08/14 01:10:03;;;;;;;1.0;0.5;;;;;;;23.4;80.7;100810;;;;
2022/08/14 01:11:02;;;;;;;1.0;0.5;;;;;;;23.4;80.7;100810;;;;
2022/08/14 01:12:03;;;;;;;2.0;0.5;;;;;;;23.3;78.1;100810;;;;
2022/08/14 01:13:01;;;;;;;2.0;0.5;;;;;;;23.3;78.1;100810;;;;
2022/08/14 01:14:01;;;;;;;2.0;0.5;;;;;;;23.4;80.1;100810;;;;
2022/08/14 01:15:02;;;;;;;2.0;0.5;;;;;;;23.4;80.1;100810;;;;
2022/08/14 01:16:03;;;;;;;2.0;0.5;;;;;;;23.2;81.0;100800;;;;
2022/08/14 01:17:00;;;;;;;2.0;0.5;;;;;;;23.2;81.0;100800;;;;
2022/08/14 01:21:02;;;;;;;2.0;0.5;;;;;;;23.2;81.5;100790;;;;
2022/08/14 01:22:02;;;;;;;2.0;0.5;;;;;;;23.2;81.4;100790;;;;
2022/08/14 01:23:00;;;;;;;2.0;0.5;;;;;;;23.2;81.4;100790;;;;
2022/08/14 01:24:00;;;;;;;2.0;0.5;;;;;;;23.1;82.7;100790;;;;
2022/08/14 01:25:00;;;;;;;2.0;0.5;;;;;;;23.1;82.7;100790;;;;
2022/08/14 01:26:04;;;;;;;2.0;0.5;;;;;;;23.1;81.3;100790;;;;
2022/08/14 01:27:03;;;;;;;2.0;0.5;;;;;;;23.1;81.3;100790;;;;
2022/08/14 01:28:00;;;;;;;2.0;0.5;;;;;;;23.3;79.5;100790;;;;
2022/08/14 01:29:02;;;;;;;2.0;0.5;;;;;;;23.3;79.5;100790;;;;
2022/08/14 01:30:05;;;;;;;2.0;0.5;;;;;;;22.9;83.1;100790;;;;
2022/08/14 01:31:04;;;;;;;2.0;0.5;;;;;;;22.9;83.1;100790;;;;
2022/08/14 01:32:03;;;;;;;0.1;0.1;;;;;;;23.0;82.5;100780;;;;
2022/08/14 01:33:01;;;;;;;0.1;0.1;;;;;;;23.0;82.5;100780;;;;
2022/08/14 01:34:11;;;;;;;0.1;0.1;;;;;;;23.1;82.7;100780;;;;
2022/08/14 01:35:10;;;;;;;0.1;0.1;;;;;;;23.1;82.3;100780;;;;
2022/08/14 01:36:07;;;;;;;0.1;0.1;;;;;;;23.1;82.3;100780;;;;
2022/08/14 01:37:01;;;;;;;0.1;0.1;;;;;;;23.1;82.3;100780;;;;
2022/08/14 01:38:00;;;;;;;0.1;0.1;;;;;;;23.0;82.1;100780;;;;
2022/08/14 01:39:01;;;;;;;0.1;0.1;;;;;;;23.0;82.1;100780;;;;
2022/08/14 01:40:02;;;;;;;0.1;0.1;;;;;;;23.0;82.1;100780;;;;
2022/08/14 01:41:01;;;;;;;0.1;0.1;;;;;;;23.0;82.1;100780;;;;
2022/08/14 01:42:00;;;;;;;0.1;0.1;;;;;;;23.1;80.5;100780;;;;
2022/08/14 01:43:02;;;;;;;0.1;0.1;;;;;;;23.1;80.5;100780;;;;
2022/08/14 01:44:02;;;;;;;0.1;0.1;;;;;;;23.1;80.8;100770;;;;
2022/08/14 01:45:09;;;;;;;0.1;0.1;;;;;;;23.1;80.8;100770;;;;
2022/08/14 01:46:10;;;;;;;0.1;0.1;;;;;;;23.0;80.8;100770;;;;
2022/08/14 01:47:11;;;;;;;0.1;0.1;;;;;;;23.0;81.4;100780;;;;
2022/08/14 01:48:03;;;;;;;0.1;0.1;;;;;;;23.0;81.4;100780;;;;
2022/08/14 01:49:02;;;;;;;0.1;0.1;;;;;;;23.0;81.4;100780;;;;
2022/08/14 01:50:02;;;;;;;0.1;0.1;;;;;;;22.9;82.5;100770;;;;
2022/08/14 01:51:01;;;;;;;0.1;0.1;;;;;;;22.9;82.5;100770;;;;
2022/08/14 01:52:00;;;;;;;0.3;0.3;;;;;;;22.9;81.7;100770;;;;
2022/08/14 01:53:01;;;;;;;0.3;0.3;;;;;;;22.9;81.7;100770;;;;
2022/08/14 01:54:01;;;;;;;0.3;0.3;;;;;;;22.8;84.4;100780;;;;
2022/08/14 01:55:00;;;;;;;0.3;0.3;;;;;;;22.8;84.4;100780;;;;
2022/08/14 01:56:03;;;;;;;0.3;0.3;;;;;;;22.7;84.4;100780;;;;
2022/08/14 01:57:00;;;;;;;0.3;0.3;;;;;;;22.7;84.4;100780;;;;
2022/08/14 01:58:12;;;;;;;0.3;0.3;;;;;;;22.7;85.1;100770;;;;
2022/08/14 01:59:00;;;;;;;0.3;0.3;;;;;;;22.7;85.1;100770;;;;
2022/08/14 02:00:03;;;;;;;0.3;0.3;;;;;;;22.7;85.2;100780;;;;
2022/08/14 02:01:01;;;;;;;0.3;0.3;;;;;;;22.7;85.2;100780;;;;
2022/08/14 02:02:06;;;;;;;0.3;0.3;;;;;;;22.7;85.5;100780;;;;
2022/08/14 02:03:00;;;;;;;0.3;0.3;;;;;;;22.7;85.5;100780;;;;
2022/08/14 02:04:01;;;;;;;0.3;0.3;;;;;;;22.5;87.0;100780;;;;
2022/08/14 02:05:00;;;;;;;0.3;0.3;;;;;;;22.5;87.0;100780;;;;
2022/08/14 02:06:11;;;;;;;0.3;0.3;;;;;;;22.5;87.3;100780;;;;
2022/08/14 02:07:01;;;;;;;0.3;0.3;;;;;;;22.5;87.3;100780;;;;
2022/08/14 02:08:10;;;;;;;0.3;0.3;;;;;;;22.5;89.2;100770;;;;
2022/08/14 02:09:02;;;;;;;0.3;0.3;;;;;;;22.5;89.2;100770;;;;
2022/08/14 02:10:00;;;;;;;0.3;0.3;;;;;;;22.3;88.6;100770;;;;
2022/08/14 02:12:03;;;;;;;0.3;0.3;;;;;;;22.5;86.4;100770;;;;
2022/08/14 02:13:06;;;;;;;0.3;0.3;;;;;;;22.5;86.4;100770;;;;
2022/08/14 02:14:07;;;;;;;0.3;0.3;;;;;;;22.5;88.6;100770;;;;
2022/08/14 02:15:01;;;;;;;0.3;0.3;;;;;;;22.5;88.6;100770;;;;
2022/08/14 02:16:10;;;;;;;0.3;0.3;;;;;;;22.5;87.2;100770;;;;
2022/08/14 02:17:01;;;;;;;0.3;0.3;;;;;;;22.5;87.2;100770;;;;
2022/08/14 02:18:00;;;;;;;0.3;0.3;;;;;;;22.3;88.7;100770;;;;
2022/08/14 02:19:00;;;;;;;0.3;0.3;;;;;;;22.3;88.7;100770;;;;
2022/08/14 02:20:03;;;;;;;0.3;0.3;;;;;;;22.4;86.8;100770;;;;
2022/08/14 02:21:00;;;;;;;0.3;0.3;;;;;;;22.4;86.8;100770;;;;
2022/08/14 02:22:05;;;;;;;0.3;0.3;;;;;;;22.2;91.9;100770;;;;
2022/08/14 02:23:00;;;;;;;0.3;0.3;;;;;;;22.2;91.9;100770;;;;
2022/08/14 02:24:00;;;;;;;0.3;0.3;;;;;;;22.4;87.2;100770;;;;
2022/08/14 02:25:00;;;;;;;0.3;0.3;;;;;;;22.4;87.2;100770;;;;
2022/08/14 02:26:11;;;;;;;0.3;0.3;;;;;;;22.3;89.5;100770;;;;
2022/08/14 02:27:10;;;;;;;0.3;0.3;;;;;;;22.1;92.6;100770;;;;
2022/08/14 02:28:10;;;;;;;0.3;0.3;;;;;;;22.1;92.6;100770;;;;
2022/08/14 02:29:03;;;;;;;0.3;0.3;;;;;;;22.0;88.5;100770;;;;
2022/08/14 02:30:02;;;;;;;0.3;0.3;;;;;;;22.0;88.5;100770;;;;
2022/08/14 02:31:00;;;;;;;0.3;0.3;;;;;;;22.0;88.5;100770;;;;
2022/08/14 02:32:00;;;;;;;0.3;0.3;;;;;;;22.3;88.0;100770;;;;
2022/08/14 02:33:04;;;;;;;0.3;0.3;;;;;;;22.3;88.0;100770;;;;
2022/08/14 02:34:17;;;;;;;0.3;0.3;;;;;;;22.2;88.5;100770;;;;
2022/08/14 02:35:02;;;;;;;0.3;0.3;;;;;;;22.2;88.5;100770;;;;
2022/08/14 02:36:11;;;;;;;0.3;0.3;;;;;;;22.2;89.2;100770;;;;
2022/08/14 02:37:08;;;;;;;0.3;0.3;;;;;;;22.1;89.2;100770;;;;
2022/08/14 02:38:01;;;;;;;0.3;0.3;;;;;;;22.1;89.2;100770;;;;
2022/08/14 02:39:00;;;;;;;0.3;0.3;;;;;;;22.1;89.2;100770;;;;
2022/08/14 02:40:05;;;;;;;0.3;0.3;;;;;;;22.1;87.5;100770;;;;
2022/08/14 02:41:00;;;;;;;0.3;0.3;;;;;;;22.1;87.5;100770;;;;
2022/08/14 02:42:04;;;;;;;0.3;0.3;;;;;;;22.3;83.1;100770;;;;
2022/08/14 02:43:04;;;;;;;0.3;0.3;;;;;;;22.1;90.1;100770;;;;
2022/08/14 02:44:01;;;;;;;0.3;0.3;;;;;;;22.1;90.1;100770;;;;
2022/08/14 02:45:00;;;;;;;0.3;0.3;;;;;;;22.1;90.1;100770;;;;
2022/08/14 02:46:02;;;;;;;0.3;0.3;;;;;;;22.0;90.5;100770;;;;
2022/08/14 02:47:01;;;;;;;0.3;0.3;;;;;;;22.0;90.5;100770;;;;
2022/08/14 02:48:02;;;;;;;0.3;0.3;;;;;;;22.1;87.3;100770;;;;
2022/08/14 02:49:05;;;;;;;0.3;0.3;;;;;;;22.2;88.0;100770;;;;
2022/08/14 02:50:00;;;;;;;0.3;0.3;;;;;;;22.2;88.0;100770;;;;
2022/08/14 02:51:01;;;;;;;0.3;0.3;;;;;;;22.2;88.0;100770;;;;
2022/08/14 02:52:00;;;;;;;0.3;0.3;;;;;;;22.1;88.6;100760;;;;
2022/08/14 02:53:07;;;;;;;0.3;0.3;;;;;;;22.2;85.6;100760;;;;
2022/08/14 02:54:00;;;;;;;0.3;0.3;;;;;;;22.2;85.6;100760;;;;
2022/08/14 02:55:00;;;;;;;0.3;0.3;;;;;;;22.2;85.6;100760;;;;
2022/08/14 02:56:10;;;;;;;0.3;0.3;;;;;;;22.0;87.4;100760;;;;
2022/08/14 02:57:11;;;;;;;0.3;0.3;;;;;;;21.8;87.8;100760;;;;
2022/08/14 02:58:05;;;;;;;0.3;0.3;;;;;;;21.8;87.8;100760;;;;
2022/08/14 02:59:00;;;;;;;0.3;0.3;;;;;;;21.8;87.8;100760;;;;
2022/08/14 03:00:02;;;;;;;0.3;0.3;;;;;;;22.0;85.5;100760;;;;
2022/08/14 03:01:01;;;;;;;0.3;0.3;;;;;;;22.0;85.5;100760;;;;
2022/08/14 03:02:02;;;;;;;0.3;0.3;;;;;;;22.1;85.2;100760;;;;
2022/08/14 03:03:01;;;;;;;0.3;0.3;;;;;;;22.1;85.2;100760;;;;
2022/08/14 03:04:00;;;;;;;0.3;0.3;;;;;;;22.1;83.3;100760;;;;
2022/08/14 03:05:00;;;;;;;0.3;0.3;;;;;;;22.1;83.3;100760;;;;
2022/08/14 03:06:00;;;;;;;0.3;0.3;;;;;;;22.1;82.4;100760;;;;
2022/08/14 03:07:09;;;;;;;0.3;0.3;;;;;;;22.2;81.7;100750;;;;
2022/08/14 03:08:11;;;;;;;0.3;0.3;;;;;;;22.2;81.7;100750;;;;
2022/08/14 03:09:00;;;;;;;0.3;0.3;;;;;;;22.2;81.7;100750;;;;
2022/08/14 03:10:10;;;;;;;0.3;0.3;;;;;;;22.1;83.7;100750;;;;
2022/08/14 03:11:05;;;;;;;0.3;0.3;;;;;;;22.1;83.7;100750;;;;
2022/08/14 03:12:05;;;;;;;0.2;0.2;;;;;;;22.1;80.7;100750;;;;
2022/08/14 03:13:03;;;;;;;0.2;0.2;;;;;;;22.1;80.7;100750;;;;
2022/08/14 03:14:00;;;;;;;0.2;0.2;;;;;;;22.2;83.2;100750;;;;
2022/08/14 03:15:09;;;;;;;0.2;0.2;;;;;;;22.2;83.2;100750;;;;
2022/08/14 03:16:09;;;;;;;0.2;0.2;;;;;;;22.1;84.3;100750;;;;
2022/08/14 03:17:00;;;;;;;0.2;0.2;;;;;;;22.1;84.3;100750;;;;
2022/08/14 03:18:00;;;;;;;0.2;0.2;;;;;;;22.1;83.3;100750;;;;
2022/08/14 03:19:01;;;;;;;0.2;0.2;;;;;;;22.1;83.3;100750;;;;
2022/08/14 03:20:00;;;;;;;0.2;0.2;;;;;;;22.0;83.1;100740;;;;
2022/08/14 03:21:01;;;;;;;0.2;0.2;;;;;;;22.0;83.1;100740;;;;
2022/08/14 03:22:00;;;;;;;0.2;0.2;;;;;;;22.0;84.4;100740;;;;
2022/08/14 03:23:03;;;;;;;0.2;0.2;;;;;;;22.0;82.4;100740;;;;
2022/08/14 03:24:08;;;;;;;0.2;0.2;;;;;;;22.0;82.4;100740;;;;
2022/08/14 03:25:01;;;;;;;0.2;0.2;;;;;;;22.0;82.4;100740;;;;
2022/08/14 03:26:02;;;;;;;0.2;0.2;;;;;;;22.0;81.1;100740;;;;
2022/08/14 03:27:00;;;;;;;0.2;0.2;;;;;;;22.0;81.1;100740;;;;
2022/08/14 03:28:03;;;;;;;0.2;0.2;;;;;;;22.0;82.7;100740;;;;
2022/08/14 03:29:01;;;;;;;0.2;0.2;;;;;;;22.0;82.7;100740;;;;
2022/08/14 03:30:05;;;;;;;0.2;0.2;;;;;;;22.0;83.3;100730;;;;
2022/08/14 03:31:00;;;;;;;0.2;0.2;;;;;;;22.0;83.3;100730;;;;
2022/08/14 03:32:00;;;;;;;0.2;0.2;;;;;;;21.9;85.0;100740;;;;
2022/08/14 03:33:00;;;;;;;0.2;0.2;;;;;;;21.9;85.0;100740;;;;
2022/08/14 03:34:00;;;;;;;0.2;0.2;;;;;;;21.8;87.0;100730;;;;
2022/08/14 03:35:00;;;;;;;0.2;0.2;;;;;;;21.8;87.0;100730;;;;
2022/08/14 03:36:12;;;;;;;0.2;0.2;;;;;;;21.8;84.9;100730;;;;
2022/08/14 03:37:10;;;;;;;0.2;0.2;;;;;;;21.8;84.5;100730;;;;
2022/08/14 03:38:17;;;;;;;0.2;0.2;;;;;;;21.8;84.5;100730;;;;
2022/08/14 03:39:10;;;;;;;0.2;0.2;;;;;;;21.8;84.9;100730;;;;
2022/08/14 03:40:00;;;;;;;0.2;0.2;;;;;;;21.8;84.9;100730;;;;
2022/08/14 03:41:00;;;;;;;0.2;0.2;;;;;;;21.8;84.9;100730;;;;
2022/08/14 03:42:03;;;;;;;0.2;0.2;;;;;;;21.6;87.7;100730;;;;
2022/08/14 03:43:04;;;;;;;0.2;0.2;;;;;;;21.6;87.7;100730;;;;
2022/08/14 03:44:11;;;;;;;0.2;0.2;;;;;;;21.7;88.4;100730;;;;
2022/08/14 03:45:10;;;;;;;0.2;0.2;;;;;;;21.6;86.9;100740;;;;
2022/08/14 03:46:01;;;;;;;0.2;0.2;;;;;;;21.6;86.9;100740;;;;
2022/08/14 03:47:03;;;;;;;0.2;0.2;;;;;;;21.6;85.5;100740;;;;
2022/08/14 03:48:20;;;;;;;0.2;0.2;;;;;;;21.6;85.5;100740;;;;
2022/08/14 03:49:04;;;;;;;0.2;0.2;;;;;;;21.6;85.5;100740;;;;
2022/08/14 03:50:01;;;;;;;0.2;0.2;;;;;;;21.7;85.4;100740;;;;
2022/08/14 03:51:01;;;;;;;0.2;0.2;;;;;;;21.7;85.4;100740;;;;
2022/08/14 03:52:03;;;;;;;0.1;0.1;;;;;;;21.7;85.3;100740;;;;
2022/08/14 03:53:01;;;;;;;0.1;0.1;;;;;;;21.7;85.3;100740;;;;
2022/08/14 03:54:02;;;;;;;0.1;0.1;;;;;;;21.7;86.2;100730;;;;
2022/08/14 03:55:02;;;;;;;0.1;0.1;;;;;;;21.7;86.2;100730;;;;
2022/08/14 03:56:00;;;;;;;0.1;0.1;;;;;;;21.6;86.7;100730;;;;
2022/08/14 03:57:03;;;;;;;0.1;0.1;;;;;;;21.6;86.7;100740;;;;
2022/08/14 03:58:01;;;;;;;0.1;0.1;;;;;;;21.6;85.0;100740;;;;
2022/08/14 03:59:04;;;;;;;0.1;0.1;;;;;;;21.6;85.0;100740;;;;
2022/08/14 04:00:05;;;;;;;0.1;0.1;;;;;;;21.6;87.5;100730;;;;
2022/08/14 04:01:01;;;;;;;0.1;0.1;;;;;;;21.6;87.5;100730;;;;
2022/08/14 04:02:04;;;;;;;0.1;0.1;;;;;;;21.5;86.6;100730;;;;
2022/08/14 04:03:01;;;;;;;0.1;0.1;;;;;;;21.5;86.6;100730;;;;
2022/08/14 04:04:04;;;;;;;0.1;0.1;;;;;;;21.5;87.1;100730;;;;
2022/08/14 04:05:10;;;;;;;0.1;0.1;;;;;;;21.5;86.0;100730;;;;
2022/08/14 04:06:00;;;;;;;0.1;0.1;;;;;;;21.5;86.0;100730;;;;
2022/08/14 04:07:00;;;;;;;0.1;0.1;;;;;;;21.5;86.0;100730;;;;
2022/08/14 04:08:10;;;;;;;0.1;0.1;;;;;;;21.5;85.7;100730;;;;
2022/08/14 04:09:01;;;;;;;0.1;0.1;;;;;;;21.5;85.7;100730;;;;
2022/08/14 04:10:03;;;;;;;0.1;0.1;;;;;;;21.4;85.5;100730;;;;
2022/08/14 04:11:02;;;;;;;0.1;0.1;;;;;;;21.4;85.5;100730;;;;
2022/08/14 04:12:02;;;;;;;0.6;0.6;;;;;;;21.4;87.5;100730;;;;
2022/08/14 04:13:04;;;;;;;0.6;0.6;;;;;;;21.4;89.6;100730;;;;
2022/08/14 04:14:01;;;;;;;0.6;0.6;;;;;;;21.4;89.6;100730;;;;
2022/08/14 04:15:00;;;;;;;0.6;0.6;;;;;;;21.4;89.6;100730;;;;
2022/08/14 04:16:05;;;;;;;0.6;0.6;;;;;;;21.2;92.4;100720;;;;
2022/08/14 04:17:03;;;;;;;0.6;0.6;;;;;;;21.2;92.4;100720;;;;
2022/08/14 04:18:05;;;;;;;0.6;0.6;;;;;;;21.1;94.8;100720;;;;
2022/08/14 04:19:03;;;;;;;0.6;0.6;;;;;;;21.1;94.8;100720;;;;
2022/08/14 04:20:04;;;;;;;0.6;0.6;;;;;;;21.2;88.4;100720;;;;
2022/08/14 04:21:01;;;;;;;0.6;0.6;;;;;;;21.2;88.4;100720;;;;
2022/08/14 04:22:05;;;;;;;0.6;0.6;;;;;;;21.2;90.5;100720;;;;
2022/08/14 04:23:02;;;;;;;0.6;0.6;;;;;;;21.2;90.5;100720;;;;
2022/08/14 04:24:00;;;;;;;0.6;0.6;;;;;;;21.2;87.0;100720;;;;
2022/08/14 04:25:06;;;;;;;0.6;0.6;;;;;;;21.1;93.3;100720;;;;
2022/08/14 04:26:01;;;;;;;0.6;0.6;;;;;;;21.1;93.3;100720;;;;
2022/08/14 04:27:00;;;;;;;0.6;0.6;;;;;;;21.1;93.3;100720;;;;
2022/08/14 04:28:04;;;;;;;0.6;0.6;;;;;;;21.0;93.2;100720;;;;
2022/08/14 04:29:11;;;;;;;0.6;0.6;;;;;;;21.0;95.5;100720;;;;
2022/08/14 04:30:05;;;;;;;0.6;0.6;;;;;;;21.0;95.5;100720;;;;
2022/08/14 04:31:00;;;;;;;0.6;0.6;;;;;;;21.0;95.5;100720;;;;
2022/08/14 04:32:10;;;;;;;0.2;0.2;;;;;;;21.1;91.8;100710;;;;
2022/08/14 04:33:10;;;;;;;0.2;0.2;;;;;;;20.9;97.3;100710;;;;
2022/08/14 04:34:00;;;;;;;0.2;0.2;;;;;;;20.9;97.3;100710;;;;
2022/08/14 04:35:00;;;;;;;0.2;0.2;;;;;;;20.9;97.3;100710;;;;
2022/08/14 04:36:00;;;;;;;0.2;0.2;;;;;;;21.0;95.0;100710;;;;
2022/08/14 04:44:00;;;;;;;0.2;0.2;;;;;;;21.0;95.2;100710;;;;
2022/08/14 04:45:01;;;;;;;0.2;0.2;;;;;;;21.0;95.2;100710;;;;
2022/08/14 04:46:01;;;;;;;0.2;0.2;;;;;;;20.9;98.3;100710;;;;
2022/08/14 04:49:01;;;;;;;0.2;0.2;;;;;;;20.9;93.8;100700;;;;
2022/08/14 04:50:04;;;;;;;0.2;0.2;;;;;;;21.0;97.3;100700;;;;
2022/08/14 04:51:01;;;;;;;0.2;0.2;;;;;;;21.0;97.3;100700;;;;
2022/08/14 04:52:03;;;;;;;0.4;0.4;;;;;;;20.9;97.8;100700;;;;
2022/08/14 04:53:01;;;;;;;0.4;0.4;;;;;;;20.9;97.8;100700;;;;
2022/08/14 04:54:00;;;;;;;0.4;0.4;;;;;;;20.7;100.0;100690;;;;
2022/08/14 04:55:01;;;;;;;0.4;0.4;;;;;;;20.7;100.0;100690;;;;
2022/08/14 04:56:00;;;;;;;0.4;0.4;;;;;;;20.8;98.3;100690;;;;
2022/08/14 04:57:00;;;;;;;0.4;0.4;;;;;;;20.8;98.3;100690;;;;
2022/08/14 04:58:02;;;;;;;0.4;0.4;;;;;;;20.9;97.7;100700;;;;
2022/08/14 04:59:05;;;;;;;0.4;0.4;;;;;;;21.0;93.0;100690;;;;
2022/08/14 05:00:01;;;;;;;0.4;0.4;;;;;;;21.0;93.0;100690;;;;
2022/08/14 05:01:02;;;;;;;0.4;0.4;;;;;;;21.0;93.0;100690;;;;
2022/08/14 05:02:00;;;;;;;0.4;0.4;;;;;;;20.9;95.9;100700;;;;
2022/08/14 05:03:02;;;;;;;0.4;0.4;;;;;;;20.9;95.9;100700;;;;
2022/08/14 05:04:00;;;;;;;0.4;0.4;;;;;;;20.9;100.0;100700;;;;
2022/08/14 05:05:00;;;;;;;0.4;0.4;;;;;;;20.9;100.0;100700;;;;
2022/08/14 05:06:03;;;;;;;0.4;0.4;;;;;;;20.8;99.2;100690;;;;
2022/08/14 05:07:00;;;;;;;0.4;0.4;;;;;;;20.8;99.2;100690;;;;
2022/08/14 05:08:11;;;;;;;0.4;0.4;;;;;;;20.9;97.5;100690;;;;
2022/08/14 05:09:00;;;;;;;0.4;0.4;;;;;;;20.9;97.5;100690;;;;
2022/08/14 05:10:11;;;;;;;0.4;0.4;;;;;;;21.0;96.7;100690;;;;
2022/08/14 05:11:05;;;;;;;0.4;0.4;;;;;;;20.8;100.0;100690;;;;
2022/08/14 05:12:10;;;;;;;0.3;0.3;;;;;;;20.8;100.0;100690;;;;
2022/08/14 05:13:10;;;;;;;0.3;0.3;;;;;;;20.9;100.0;100690;;;;
2022/08/14 05:14:10;;;;;;;0.3;0.3;;;;;;;20.9;100.0;100690;;;;
2022/08/14 05:15:01;;;;;;;0.3;0.3;;;;;;;20.9;100.0;100690;;;;
2022/08/14 05:16:00;;;;;;;0.3;0.3;;;;;;;20.9;100.0;100690;;;;
2022/08/14 05:17:02;;;;;;;0.3;0.3;;;;;;;20.9;100.0;100690;;;;
2022/08/14 05:18:12;;;;;;;0.3;0.3;;;;;;;20.9;100.0;100680;;;;
2022/08/14 05:19:13;;;;;;;0.3;0.3;;;;;;;20.8;100.0;100680;;;;
2022/08/14 05:20:11;;;;;;;0.3;0.3;;;;;;;20.8;100.0;100680;;;;
2022/08/14 05:21:11;;;;;;;0.3;0.3;;;;;;;20.8;100.0;100680;;;;
2022/08/14 05:22:10;;;;;;;0.3;0.3;;;;;;;20.8;100.0;100680;;;;
2022/08/14 05:23:02;;;;;;;0.3;0.3;;;;;;;20.8;100.0;100680;;;;
2022/08/14 05:24:01;;;;;;;0.3;0.3;;;;;;;20.8;100.0;100680;;;;
2022/08/14 05:25:02;;;;;;;0.3;0.3;;;;;;;20.8;100.0;100680;;;;
2022/08/14 05:26:01;;;;;;;0.3;0.3;;;;;;;20.9;100.0;100680;;;;
2022/08/14 05:27:02;;;;;;;0.3;0.3;;;;;;;20.9;100.0;100680;;;;
2022/08/14 05:28:17;;;;;;;0.3;0.3;;;;;;;20.8;100.0;100680;;;;
2022/08/14 05:29:00;;;;;;;0.3;0.3;;;;;;;20.8;100.0;100680;;;;
2022/08/14 05:30:02;;;;;;;0.3;0.3;;;;;;;20.9;100.0;100680;;;;
2022/08/14 05:31:05;;;;;;;0.3;0.3;;;;;;;21.0;100.0;100690;;;;
2022/08/14 05:32:06;;;;;;;0.8;0.8;;;;;;;21.0;100.0;100690;;;;
2022/08/14 05:33:00;;;;;;;0.8;0.8;;;;;;;21.0;100.0;100690;;;;
2022/08/14 05:34:00;;;;;;;0.8;0.8;;;;;;;21.0;100.0;100680;;;;
2022/08/14 05:35:00;;;;;;;0.8;0.8;;;;;;;21.0;100.0;100680;;;;
2022/08/14 05:36:01;;;;;;;0.8;0.8;;;;;;;21.1;100.0;100680;;;;
2022/08/14 05:37:03;;;;;;;0.8;0.8;;;;;;;21.1;100.0;100680;;;;
2022/08/14 05:38:12;;;;;;;0.8;0.8;;;;;;;21.1;100.0;100680;;;;
2022/08/14 05:39:02;;;;;;;0.8;0.8;;;;;;;21.1;100.0;100680;;;;
2022/08/14 05:40:00;;;;;;;0.8;0.8;;;;;;;21.0;100.0;100680;;;;
2022/08/14 05:41:06;;;;;;;0.8;0.8;;;;;;;21.1;100.0;100680;;;;
2022/08/14 05:42:01;;;;;;;0.8;0.8;;;;;;;21.1;100.0;100680;;;;
2022/08/14 05:43:07;;;;;;;0.8;0.8;;;;;;;21.2;100.0;100680;;;;
2022/08/14 05:44:00;;;;;;;0.8;0.8;;;;;;;21.2;100.0;100680;;;;
2022/08/14 05:45:00;;;;;;;0.8;0.8;;;;;;;21.2;100.0;100680;;;;
2022/08/14 05:46:01;;;;;;;0.8;0.8;;;;;;;21.1;100.0;100670;;;;
2022/08/14 05:47:01;;;;;;;0.8;0.8;;;;;;;21.1;100.0;100670;;;;
2022/08/14 05:48:01;;;;;;;0.8;0.8;;;;;;;20.9;100.0;100670;;;;
2022/08/14 05:49:00;;;;;;;0.8;0.8;;;;;;;20.9;100.0;100670;;;;
2022/08/14 05:50:00;;;;;;;0.8;0.8;;;;;;;21.0;100.0;100680;;;;
2022/08/14 05:51:01;;;;;;;0.8;0.8;;;;;;;21.0;100.0;100680;;;;
2022/08/14 05:52:02;;;;;;;0.3;0.3;;;;;;;21.1;100.0;100680;;;;
2022/08/14 05:53:00;;;;;;;0.3;0.3;;;;;;;21.1;100.0;100680;;;;
2022/08/14 05:54:10;;;;;;;0.3;0.3;;;;;;;21.3;100.0;100680;;;;
2022/08/14 05:55:00;;;;;;;0.3;0.3;;;;;;;21.3;100.0;100680;;;;
2022/08/14 05:56:00;;;;;;;0.3;0.3;;;;;;;21.3;100.0;100690;;;;
2022/08/14 05:57:01;;;;;;;0.3;0.3;;;;;;;21.3;100.0;100690;;;;
2022/08/14 05:58:01;;;;;;;0.3;0.3;;;;;;;21.1;100.0;100680;;;;
2022/08/14 05:59:00;;;;;;;0.3;0.3;;;;;;;21.1;100.0;100680;;;;
2022/08/14 06:00:00;;;;;;;0.3;0.3;;;;;;;21.2;100.0;100680;;;;
2022/08/14 06:01:02;;;;;;;0.3;0.3;;;;;;;21.2;100.0;100680;;;;
2022/08/14 06:02:02;;;;;;;0.3;0.3;;;;;;;21.3;100.0;100680;;;;
2022/08/14 06:03:02;;;;;;;0.3;0.3;;;;;;;21.3;100.0;100680;;;;
2022/08/14 06:04:00;;;;;;;0.3;0.3;;;;;;;21.5;100.0;100670;;;;
2022/08/14 06:05:01;;;;;;;0.3;0.3;;;;;;;21.5;100.0;100670;;;;
2022/08/14 06:06:02;;;;;;;0.3;0.3;;;;;;;21.5;100.0;100670;;;;
2022/08/14 06:07:00;;;;;;;0.3;0.3;;;;;;;21.5;100.0;100670;;;;
2022/08/14 06:08:00;;;;;;;0.3;0.3;;;;;;;21.6;100.0;100670;;;;
2022/08/14 06:09:00;;;;;;;0.3;0.3;;;;;;;21.6;100.0;100670;;;;
2022/08/14 06:10:04;;;;;;;0.3;0.3;;;;;;;21.7;100.0;100680;;;;
2022/08/14 06:11:04;;;;;;;0.3;0.3;;;;;;;21.8;100.0;100680;;;;
2022/08/14 06:12:00;;;;;;;0.6;0.6;;;;;;;21.8;100.0;100680;;;;
2022/08/14 06:13:02;;;;;;;0.6;0.6;;;;;;;21.8;100.0;100680;;;;
2022/08/14 06:14:00;;;;;;;0.6;0.6;;;;;;;21.7;100.0;100680;;;;
2022/08/14 06:15:00;;;;;;;0.6;0.6;;;;;;;21.7;100.0;100680;;;;
2022/08/14 06:16:00;;;;;;;0.6;0.6;;;;;;;21.6;100.0;100670;;;;
2022/08/14 06:17:00;;;;;;;0.6;0.6;;;;;;;21.6;100.0;100670;;;;
2022/08/14 06:18:01;;;;;;;0.6;0.6;;;;;;;21.7;100.0;100680;;;;
2022/08/14 06:19:00;;;;;;;0.6;0.6;;;;;;;21.7;100.0;100680;;;;
2022/08/14 06:20:00;;;;;;;0.6;0.6;;;;;;;21.8;100.0;100680;;;;
2022/08/14 06:21:02;;;;;;;0.6;0.6;;;;;;;21.8;100.0;100680;;;;
2022/08/14 06:22:01;;;;;;;0.6;0.6;;;;;;;21.9;100.0;100680;;;;
2022/08/14 06:23:00;;;;;;;0.6;0.6;;;;;;;21.9;100.0;100680;;;;
2022/08/14 06:24:01;;;;;;;0.6;0.6;;;;;;;22.1;100.0;100680;;;;
2022/08/14 06:25:01;;;;;;;0.6;0.6;;;;;;;22.1;100.0;100680;;;;
2022/08/14 06:26:00;;;;;;;0.6;0.6;;;;;;;22.1;100.0;100680;;;;
2022/08/14 06:27:05;;;;;;;0.6;0.6;;;;;;;22.2;100.0;100680;;;;
2022/08/14 06:28:04;;;;;;;0.6;0.6;;;;;;;22.2;100.0;100680;;;;
2022/08/14 06:29:00;;;;;;;0.6;0.6;;;;;;;22.2;100.0;100680;;;;
2022/08/14 06:30:00;;;;;;;0.6;0.6;;;;;;;22.2;100.0;100670;;;;
2022/08/14 06:31:00;;;;;;;0.6;0.6;;;;;;;22.2;100.0;100670;;;;
2022/08/14 06:32:10;;;;;;;1.6;1.2;;;;;;;22.5;100.0;100670;;;;
2022/08/14 06:33:05;;;;;;;1.6;1.2;;;;;;;22.3;100.0;100670;;;;
2022/08/14 06:34:10;;;;;;;1.6;1.2;;;;;;;22.3;100.0;100670;;;;
2022/08/14 06:35:10;;;;;;;1.6;1.2;;;;;;;22.6;100.0;100670;;;;
2022/08/14 06:36:00;;;;;;;1.6;1.2;;;;;;;22.6;100.0;100670;;;;
2022/08/14 06:37:00;;;;;;;1.6;1.2;;;;;;;22.6;100.0;100670;;;;
2022/08/14 06:38:04;;;;;;;1.6;1.2;;;;;;;22.7;100.0;100670;;;;
2022/08/14 06:39:00;;;;;;;1.6;1.2;;;;;;;22.7;100.0;100670;;;;
2022/08/14 06:40:00;;;;;;;1.6;1.2;;;;;;;22.8;100.0;100670;;;;
2022/08/14 06:41:00;;;;;;;1.6;1.2;;;;;;;22.8;100.0;100670;;;;